sensor_id;sensor_type;location;lat;lon;timestamp;P1;durP1;ratioP1;P2;durP2;ratioP2
28762;SDS011;15918;51.270;6.522;2024-02-14T00:02:10;6.50;;;2.42;;
28762;SDS011;15918;51.270;6.522;2024-02-14T00:04:36;3.20;;;1.88;;
28762;SDS011;15918;51.270;6.522;2024-02-14T00:07:01;4.38;;;2.45;;
28762;SDS011;15918;51.270;6.522;2024-02-14T00:09:27;2.95;;;1.63;;
28762;SDS011;15918;51.270;6.522;2024-02-14T00:11:52;4.43;;;1.85;;
28762;SDS011;15918;51.270;6.522;2024-02-14T00:14:18;3.92;;;1.95;;
28762;SDS011;15918;51.270;6.522;2024-02-14T00:16:46;2.58;;;1.70;;
28762;SDS011;15918;51.270;6.522;2024-02-14T00:19:12;4.28;;;1.88;;
28762;SDS011;15918;51.270;6.522;2024-02-14T00:21:38;3.38;;;2.00;;
28762;SDS011;15918;51.270;6.522;2024-02-14T00:24:04;3.00;;;1.92;;
28762;SDS011;15918;51.270;6.522;2024-02-14T00:26:30;3.90;;;1.85;;
28762;SDS011;15918;51.270;6.522;2024-02-14T00:28:56;3.08;;;1.98;;
28762;SDS011;15918;51.270;6.522;2024-02-14T00:31:21;3.65;;;1.60;;
28762;SDS011;15918;51.270;6.522;2024-02-14T00:33:47;4.75;;;1.90;;
28762;SDS011;15918;51.270;6.522;2024-02-14T00:36:13;3.92;;;2.05;;
28762;SDS011;15918;51.270;6.522;2024-02-14T00:38:38;3.55;;;2.17;;
28762;SDS011;15918;51.270;6.522;2024-02-14T00:41:04;3.42;;;2.22;;
28762;SDS011;15918;51.270;6.522;2024-02-14T00:43:29;3.35;;;1.90;;
28762;SDS011;15918;51.270;6.522;2024-02-14T00:45:55;4.63;;;2.17;;
28762;SDS011;15918;51.270;6.522;2024-02-14T00:48:23;2.63;;;1.70;;
28762;SDS011;15918;51.270;6.522;2024-02-14T00:50:49;2.75;;;1.60;;
28762;SDS011;15918;51.270;6.522;2024-02-14T00:53:14;1.95;;;1.63;;
28762;SDS011;15918;51.270;6.522;2024-02-14T00:55:40;1.90;;;1.42;;
28762;SDS011;15918;51.270;6.522;2024-02-14T00:58:06;2.58;;;1.88;;
28762;SDS011;15918;51.270;6.522;2024-02-14T01:00:32;2.75;;;1.92;;
28762;SDS011;15918;51.270;6.522;2024-02-14T01:02:58;3.88;;;1.75;;
28762;SDS011;15918;51.270;6.522;2024-02-14T01:05:24;3.40;;;2.13;;
28762;SDS011;15918;51.270;6.522;2024-02-14T01:07:49;1.98;;;1.60;;
28762;SDS011;15918;51.270;6.522;2024-02-14T01:10:16;3.85;;;1.90;;
28762;SDS011;15918;51.270;6.522;2024-02-14T01:12:43;3.47;;;2.08;;
28762;SDS011;15918;51.270;6.522;2024-02-14T01:15:09;4.00;;;2.10;;
28762;SDS011;15918;51.270;6.522;2024-02-14T01:17:34;3.20;;;2.03;;
28762;SDS011;15918;51.270;6.522;2024-02-14T01:20:01;1.90;;;1.70;;
28762;SDS011;15918;51.270;6.522;2024-02-14T01:22:27;3.50;;;1.85;;
28762;SDS011;15918;51.270;6.522;2024-02-14T01:24:53;2.08;;;1.77;;
28762;SDS011;15918;51.270;6.522;2024-02-14T01:27:19;5.45;;;1.70;;
28762;SDS011;15918;51.270;6.522;2024-02-14T01:29:47;5.57;;;1.77;;
28762;SDS011;15918;51.270;6.522;2024-02-14T01:32:13;2.45;;;1.48;;
28762;SDS011;15918;51.270;6.522;2024-02-14T01:34:38;3.00;;;1.70;;
28762;SDS011;15918;51.270;6.522;2024-02-14T01:37:04;2.35;;;1.70;;
28762;SDS011;15918;51.270;6.522;2024-02-14T01:39:30;4.70;;;2.10;;
28762;SDS011;15918;51.270;6.522;2024-02-14T01:41:56;2.13;;;1.90;;
28762;SDS011;15918;51.270;6.522;2024-02-14T01:44:21;3.17;;;2.03;;
28762;SDS011;15918;51.270;6.522;2024-02-14T01:46:47;3.75;;;2.15;;
28762;SDS011;15918;51.270;6.522;2024-02-14T01:49:13;1.98;;;1.77;;
28762;SDS011;15918;51.270;6.522;2024-02-14T01:51:40;2.70;;;1.80;;
28762;SDS011;15918;51.270;6.522;2024-02-14T01:54:10;2.13;;;1.70;;
28762;SDS011;15918;51.270;6.522;2024-02-14T01:56:37;2.90;;;1.90;;
28762;SDS011;15918;51.270;6.522;2024-02-14T01:59:04;1.83;;;1.55;;
28762;SDS011;15918;51.270;6.522;2024-02-14T02:01:31;3.25;;;2.10;;
28762;SDS011;15918;51.270;6.522;2024-02-14T02:03:57;2.33;;;1.60;;
28762;SDS011;15918;51.270;6.522;2024-02-14T02:06:23;3.80;;;2.08;;
28762;SDS011;15918;51.270;6.522;2024-02-14T02:08:51;5.18;;;1.80;;
28762;SDS011;15918;51.270;6.522;2024-02-14T02:11:17;3.20;;;2.20;;
28762;SDS011;15918;51.270;6.522;2024-02-14T02:13:42;2.25;;;2.05;;
28762;SDS011;15918;51.270;6.522;2024-02-14T02:16:08;3.90;;;2.47;;
28762;SDS011;15918;51.270;6.522;2024-02-14T02:18:34;3.65;;;1.92;;
28762;SDS011;15918;51.270;6.522;2024-02-14T02:21:00;3.63;;;2.20;;
28762;SDS011;15918;51.270;6.522;2024-02-14T02:23:33;3.38;;;2.00;;
28762;SDS011;15918;51.270;6.522;2024-02-14T02:25:59;4.88;;;2.42;;
28762;SDS011;15918;51.270;6.522;2024-02-14T02:28:24;3.88;;;2.15;;
28762;SDS011;15918;51.270;6.522;2024-02-14T02:30:50;3.70;;;2.25;;
28762;SDS011;15918;51.270;6.522;2024-02-14T02:33:17;2.60;;;2.15;;
28762;SDS011;15918;51.270;6.522;2024-02-14T02:35:43;3.42;;;2.08;;
28762;SDS011;15918;51.270;6.522;2024-02-14T02:38:10;3.78;;;2.40;;
28762;SDS011;15918;51.270;6.522;2024-02-14T02:40:36;2.08;;;1.80;;
28762;SDS011;15918;51.270;6.522;2024-02-14T02:43:02;4.13;;;2.47;;
28762;SDS011;15918;51.270;6.522;2024-02-14T02:45:28;2.78;;;2.25;;
28762;SDS011;15918;51.270;6.522;2024-02-14T02:47:53;5.03;;;2.58;;
28762;SDS011;15918;51.270;6.522;2024-02-14T02:50:20;5.82;;;2.35;;
28762;SDS011;15918;51.270;6.522;2024-02-14T02:52:47;4.88;;;2.30;;
28762;SDS011;15918;51.270;6.522;2024-02-14T02:55:13;2.97;;;2.10;;
28762;SDS011;15918;51.270;6.522;2024-02-14T02:57:42;3.80;;;2.70;;
28762;SDS011;15918;51.270;6.522;2024-02-14T03:00:08;4.50;;;2.90;;
28762;SDS011;15918;51.270;6.522;2024-02-14T03:02:36;4.90;;;2.47;;
28762;SDS011;15918;51.270;6.522;2024-02-14T03:05:05;4.75;;;2.75;;
28762;SDS011;15918;51.270;6.522;2024-02-14T03:07:35;3.45;;;2.22;;
28762;SDS011;15918;51.270;6.522;2024-02-14T03:10:01;4.00;;;2.50;;
28762;SDS011;15918;51.270;6.522;2024-02-14T03:12:28;4.85;;;2.72;;
28762;SDS011;15918;51.270;6.522;2024-02-14T03:14:55;3.17;;;2.72;;
28762;SDS011;15918;51.270;6.522;2024-02-14T03:17:23;3.80;;;2.53;;
28762;SDS011;15918;51.270;6.522;2024-02-14T03:19:48;6.10;;;2.95;;
28762;SDS011;15918;51.270;6.522;2024-02-14T03:22:16;4.85;;;2.45;;
28762;SDS011;15918;51.270;6.522;2024-02-14T03:24:43;3.88;;;3.05;;
28762;SDS011;15918;51.270;6.522;2024-02-14T03:27:11;4.03;;;2.70;;
28762;SDS011;15918;51.270;6.522;2024-02-14T03:29:37;6.35;;;2.47;;
28762;SDS011;15918;51.270;6.522;2024-02-14T03:32:04;5.38;;;3.28;;
28762;SDS011;15918;51.270;6.522;2024-02-14T03:34:30;2.58;;;2.38;;
28762;SDS011;15918;51.270;6.522;2024-02-14T03:36:58;4.78;;;2.70;;
28762;SDS011;15918;51.270;6.522;2024-02-14T03:39:25;4.30;;;2.90;;
28762;SDS011;15918;51.270;6.522;2024-02-14T03:41:51;3.72;;;2.50;;
28762;SDS011;15918;51.270;6.522;2024-02-14T03:44:17;5.45;;;3.03;;
28762;SDS011;15918;51.270;6.522;2024-02-14T03:46:43;5.05;;;2.95;;
28762;SDS011;15918;51.270;6.522;2024-02-14T03:49:08;4.00;;;2.70;;
28762;SDS011;15918;51.270;6.522;2024-02-14T03:51:34;4.43;;;3.10;;
28762;SDS011;15918;51.270;6.522;2024-02-14T03:53:59;3.85;;;3.10;;
28762;SDS011;15918;51.270;6.522;2024-02-14T03:56:25;4.47;;;2.75;;
28762;SDS011;15918;51.270;6.522;2024-02-14T03:58:51;4.63;;;3.10;;
28762;SDS011;15918;51.270;6.522;2024-02-14T04:01:17;5.68;;;2.92;;
28762;SDS011;15918;51.270;6.522;2024-02-14T04:03:42;5.35;;;2.95;;
28762;SDS011;15918;51.270;6.522;2024-02-14T04:06:08;3.55;;;2.80;;
28762;SDS011;15918;51.270;6.522;2024-02-14T04:08:33;5.72;;;3.15;;
28762;SDS011;15918;51.270;6.522;2024-02-14T04:11:00;5.15;;;3.47;;
28762;SDS011;15918;51.270;6.522;2024-02-14T04:13:25;5.10;;;3.10;;
28762;SDS011;15918;51.270;6.522;2024-02-14T04:15:51;3.25;;;2.63;;
28762;SDS011;15918;51.270;6.522;2024-02-14T04:18:16;3.60;;;2.47;;
28762;SDS011;15918;51.270;6.522;2024-02-14T04:20:45;3.80;;;2.95;;
28762;SDS011;15918;51.270;6.522;2024-02-14T04:23:10;6.47;;;2.78;;
28762;SDS011;15918;51.270;6.522;2024-02-14T04:25:36;3.78;;;2.67;;
28762;SDS011;15918;51.270;6.522;2024-02-14T04:28:05;4.13;;;2.90;;
28762;SDS011;15918;51.270;6.522;2024-02-14T04:30:31;4.40;;;2.90;;
28762;SDS011;15918;51.270;6.522;2024-02-14T04:32:56;5.47;;;3.40;;
28762;SDS011;15918;51.270;6.522;2024-02-14T04:35:22;5.38;;;3.08;;
28762;SDS011;15918;51.270;6.522;2024-02-14T04:37:48;3.50;;;2.95;;
28762;SDS011;15918;51.270;6.522;2024-02-14T04:40:14;5.30;;;3.20;;
28762;SDS011;15918;51.270;6.522;2024-02-14T04:42:43;5.20;;;2.97;;
28762;SDS011;15918;51.270;6.522;2024-02-14T04:45:09;4.15;;;3.13;;
28762;SDS011;15918;51.270;6.522;2024-02-14T04:47:35;4.85;;;3.05;;
28762;SDS011;15918;51.270;6.522;2024-02-14T04:50:01;7.65;;;3.35;;
28762;SDS011;15918;51.270;6.522;2024-02-14T04:52:28;4.38;;;3.10;;
28762;SDS011;15918;51.270;6.522;2024-02-14T04:54:54;5.60;;;2.85;;
28762;SDS011;15918;51.270;6.522;2024-02-14T04:57:21;6.50;;;3.50;;
28762;SDS011;15918;51.270;6.522;2024-02-14T04:59:47;5.63;;;3.47;;
28762;SDS011;15918;51.270;6.522;2024-02-14T05:02:12;4.03;;;2.88;;
28762;SDS011;15918;51.270;6.522;2024-02-14T05:04:38;8.63;;;4.00;;
28762;SDS011;15918;51.270;6.522;2024-02-14T05:07:04;4.00;;;3.60;;
28762;SDS011;15918;51.270;6.522;2024-02-14T05:09:30;5.05;;;3.50;;
28762;SDS011;15918;51.270;6.522;2024-02-14T05:11:56;3.40;;;3.10;;
28762;SDS011;15918;51.270;6.522;2024-02-14T05:14:21;6.03;;;3.67;;
28762;SDS011;15918;51.270;6.522;2024-02-14T05:16:47;4.07;;;3.55;;
28762;SDS011;15918;51.270;6.522;2024-02-14T05:19:12;4.90;;;3.20;;
28762;SDS011;15918;51.270;6.522;2024-02-14T05:21:38;5.72;;;3.20;;
28762;SDS011;15918;51.270;6.522;2024-02-14T05:24:04;5.35;;;3.60;;
28762;SDS011;15918;51.270;6.522;2024-02-14T05:26:31;4.80;;;3.30;;
28762;SDS011;15918;51.270;6.522;2024-02-14T05:28:56;4.90;;;3.35;;
28762;SDS011;15918;51.270;6.522;2024-02-14T05:31:22;4.85;;;3.45;;
28762;SDS011;15918;51.270;6.522;2024-02-14T05:33:48;6.13;;;3.80;;
28762;SDS011;15918;51.270;6.522;2024-02-14T05:36:14;3.78;;;3.22;;
28762;SDS011;15918;51.270;6.522;2024-02-14T05:38:39;5.40;;;3.95;;
28762;SDS011;15918;51.270;6.522;2024-02-14T05:41:05;4.07;;;3.70;;
28762;SDS011;15918;51.270;6.522;2024-02-14T05:43:32;4.40;;;3.50;;
28762;SDS011;15918;51.270;6.522;2024-02-14T05:45:59;5.60;;;3.63;;
28762;SDS011;15918;51.270;6.522;2024-02-14T05:48:25;5.20;;;3.47;;
28762;SDS011;15918;51.270;6.522;2024-02-14T05:50:51;4.70;;;3.60;;
28762;SDS011;15918;51.270;6.522;2024-02-14T05:53:16;4.05;;;3.75;;
28762;SDS011;15918;51.270;6.522;2024-02-14T05:55:42;4.40;;;3.70;;
28762;SDS011;15918;51.270;6.522;2024-02-14T05:58:08;6.32;;;3.60;;
28762;SDS011;15918;51.270;6.522;2024-02-14T06:00:34;5.40;;;4.30;;
28762;SDS011;15918;51.270;6.522;2024-02-14T06:02:59;4.53;;;3.47;;
28762;SDS011;15918;51.270;6.522;2024-02-14T06:05:25;4.25;;;3.72;;
28762;SDS011;15918;51.270;6.522;2024-02-14T06:07:51;4.72;;;4.25;;
28762;SDS011;15918;51.270;6.522;2024-02-14T06:10:16;4.97;;;4.22;;
28762;SDS011;15918;51.270;6.522;2024-02-14T06:12:43;6.63;;;4.90;;
28762;SDS011;15918;51.270;6.522;2024-02-14T06:15:09;5.10;;;4.32;;
28762;SDS011;15918;51.270;6.522;2024-02-14T06:17:34;5.15;;;4.65;;
28762;SDS011;15918;51.270;6.522;2024-02-14T06:20:00;4.97;;;3.92;;
28762;SDS011;15918;51.270;6.522;2024-02-14T06:22:30;5.50;;;4.15;;
28762;SDS011;15918;51.270;6.522;2024-02-14T06:24:57;6.47;;;4.32;;
28762;SDS011;15918;51.270;6.522;2024-02-14T06:27:23;5.25;;;4.43;;
28762;SDS011;15918;51.270;6.522;2024-02-14T06:29:49;6.43;;;4.97;;
28762;SDS011;15918;51.270;6.522;2024-02-14T06:32:14;4.80;;;4.30;;
28762;SDS011;15918;51.270;6.522;2024-02-14T06:34:40;4.85;;;4.25;;
28762;SDS011;15918;51.270;6.522;2024-02-14T06:37:05;4.63;;;3.92;;
28762;SDS011;15918;51.270;6.522;2024-02-14T06:39:31;4.82;;;4.03;;
28762;SDS011;15918;51.270;6.522;2024-02-14T06:41:56;4.70;;;4.25;;
28762;SDS011;15918;51.270;6.522;2024-02-14T06:44:22;6.20;;;4.18;;
28762;SDS011;15918;51.270;6.522;2024-02-14T06:46:48;6.25;;;4.80;;
28762;SDS011;15918;51.270;6.522;2024-02-14T06:49:15;6.65;;;4.13;;
28762;SDS011;15918;51.270;6.522;2024-02-14T06:51:41;6.10;;;3.95;;
28762;SDS011;15918;51.270;6.522;2024-02-14T06:54:06;4.57;;;4.18;;
28762;SDS011;15918;51.270;6.522;2024-02-14T06:56:33;7.88;;;4.40;;
28762;SDS011;15918;51.270;6.522;2024-02-14T06:58:58;8.82;;;4.65;;
28762;SDS011;15918;51.270;6.522;2024-02-14T07:01:28;7.70;;;5.03;;
28762;SDS011;15918;51.270;6.522;2024-02-14T07:03:54;6.35;;;4.80;;
28762;SDS011;15918;51.270;6.522;2024-02-14T07:06:20;5.70;;;4.32;;
28762;SDS011;15918;51.270;6.522;2024-02-14T07:08:45;5.63;;;4.50;;
28762;SDS011;15918;51.270;6.522;2024-02-14T07:11:12;4.90;;;4.40;;
28762;SDS011;15918;51.270;6.522;2024-02-14T07:13:38;6.68;;;4.75;;
28762;SDS011;15918;51.270;6.522;2024-02-14T07:16:03;7.70;;;5.13;;
28762;SDS011;15918;51.270;6.522;2024-02-14T07:18:29;4.88;;;4.40;;
28762;SDS011;15918;51.270;6.522;2024-02-14T07:20:55;7.18;;;4.68;;
28762;SDS011;15918;51.270;6.522;2024-02-14T07:23:21;4.72;;;4.32;;
28762;SDS011;15918;51.270;6.522;2024-02-14T07:25:46;6.93;;;4.57;;
28762;SDS011;15918;51.270;6.522;2024-02-14T07:28:12;5.10;;;4.63;;
28762;SDS011;15918;51.270;6.522;2024-02-14T07:30:37;6.90;;;4.70;;
28762;SDS011;15918;51.270;6.522;2024-02-14T07:33:03;7.57;;;4.72;;
28762;SDS011;15918;51.270;6.522;2024-02-14T07:35:29;6.50;;;4.65;;
28762;SDS011;15918;51.270;6.522;2024-02-14T07:37:54;6.35;;;4.60;;
28762;SDS011;15918;51.270;6.522;2024-02-14T07:40:20;7.03;;;4.63;;
28762;SDS011;15918;51.270;6.522;2024-02-14T07:42:47;6.80;;;3.92;;
28762;SDS011;15918;51.270;6.522;2024-02-14T07:45:12;7.13;;;4.43;;
28762;SDS011;15918;51.270;6.522;2024-02-14T07:47:39;4.43;;;4.03;;
28762;SDS011;15918;51.270;6.522;2024-02-14T07:50:05;4.30;;;3.67;;
28762;SDS011;15918;51.270;6.522;2024-02-14T07:52:31;6.82;;;4.03;;
28762;SDS011;15918;51.270;6.522;2024-02-14T07:54:57;4.60;;;3.88;;
28762;SDS011;15918;51.270;6.522;2024-02-14T07:57:23;7.65;;;4.70;;
28762;SDS011;15918;51.270;6.522;2024-02-14T07:59:49;5.40;;;3.58;;
28762;SDS011;15918;51.270;6.522;2024-02-14T08:02:15;7.57;;;4.78;;
28762;SDS011;15918;51.270;6.522;2024-02-14T08:04:41;6.30;;;3.95;;
28762;SDS011;15918;51.270;6.522;2024-02-14T08:07:07;5.07;;;3.67;;
28762;SDS011;15918;51.270;6.522;2024-02-14T08:09:33;7.47;;;4.00;;
28762;SDS011;15918;51.270;6.522;2024-02-14T08:11:59;6.45;;;3.85;;
28762;SDS011;15918;51.270;6.522;2024-02-14T08:14:25;6.18;;;3.97;;
28762;SDS011;15918;51.270;6.522;2024-02-14T08:16:50;6.13;;;3.45;;
28762;SDS011;15918;51.270;6.522;2024-02-14T08:19:16;6.93;;;4.10;;
28762;SDS011;15918;51.270;6.522;2024-02-14T08:21:43;9.65;;;4.22;;
28762;SDS011;15918;51.270;6.522;2024-02-14T08:24:09;7.18;;;3.90;;
28762;SDS011;15918;51.270;6.522;2024-02-14T08:26:35;5.95;;;3.63;;
28762;SDS011;15918;51.270;6.522;2024-02-14T08:29:00;6.40;;;4.13;;
28762;SDS011;15918;51.270;6.522;2024-02-14T08:31:26;6.47;;;4.50;;
28762;SDS011;15918;51.270;6.522;2024-02-14T08:33:52;6.25;;;3.83;;
28762;SDS011;15918;51.270;6.522;2024-02-14T08:36:18;6.65;;;3.80;;
28762;SDS011;15918;51.270;6.522;2024-02-14T08:38:44;5.75;;;4.00;;
28762;SDS011;15918;51.270;6.522;2024-02-14T08:41:09;5.70;;;4.20;;
28762;SDS011;15918;51.270;6.522;2024-02-14T08:43:35;8.70;;;4.45;;
28762;SDS011;15918;51.270;6.522;2024-02-14T08:46:01;5.68;;;4.13;;
28762;SDS011;15918;51.270;6.522;2024-02-14T08:48:27;5.88;;;4.53;;
28762;SDS011;15918;51.270;6.522;2024-02-14T08:50:55;6.20;;;4.57;;
28762;SDS011;15918;51.270;6.522;2024-02-14T08:53:21;7.00;;;4.70;;
28762;SDS011;15918;51.270;6.522;2024-02-14T08:55:47;10.20;;;4.47;;
28762;SDS011;15918;51.270;6.522;2024-02-14T08:58:12;12.73;;;4.45;;
28762;SDS011;15918;51.270;6.522;2024-02-14T09:00:38;7.53;;;4.18;;
28762;SDS011;15918;51.270;6.522;2024-02-14T09:03:04;8.40;;;4.20;;
28762;SDS011;15918;51.270;6.522;2024-02-14T09:05:30;6.68;;;4.00;;
28762;SDS011;15918;51.270;6.522;2024-02-14T09:07:56;6.57;;;4.35;;
28762;SDS011;15918;51.270;6.522;2024-02-14T09:10:22;6.13;;;4.07;;
28762;SDS011;15918;51.270;6.522;2024-02-14T09:12:47;7.68;;;4.50;;
28762;SDS011;15918;51.270;6.522;2024-02-14T09:15:13;5.40;;;3.72;;
28762;SDS011;15918;51.270;6.522;2024-02-14T09:17:39;6.05;;;3.35;;
28762;SDS011;15918;51.270;6.522;2024-02-14T09:20:07;6.88;;;4.20;;
28762;SDS011;15918;51.270;6.522;2024-02-14T09:22:37;7.07;;;3.80;;
28762;SDS011;15918;51.270;6.522;2024-02-14T09:25:03;7.78;;;4.18;;
28762;SDS011;15918;51.270;6.522;2024-02-14T09:27:30;7.65;;;3.63;;
28762;SDS011;15918;51.270;6.522;2024-02-14T09:29:56;8.30;;;4.28;;
28762;SDS011;15918;51.270;6.522;2024-02-14T09:32:22;6.63;;;4.10;;
28762;SDS011;15918;51.270;6.522;2024-02-14T09:34:47;7.43;;;4.13;;
28762;SDS011;15918;51.270;6.522;2024-02-14T09:37:13;5.28;;;3.90;;
28762;SDS011;15918;51.270;6.522;2024-02-14T09:39:39;6.85;;;4.50;;
28762;SDS011;15918;51.270;6.522;2024-02-14T09:42:13;7.53;;;4.25;;
28762;SDS011;15918;51.270;6.522;2024-02-14T09:47:07;6.70;;;3.70;;
28762;SDS011;15918;51.270;6.522;2024-02-14T09:49:34;7.72;;;4.05;;
28762;SDS011;15918;51.270;6.522;2024-02-14T09:52:01;7.93;;;4.03;;
28762;SDS011;15918;51.270;6.522;2024-02-14T09:54:28;6.20;;;4.20;;
28762;SDS011;15918;51.270;6.522;2024-02-14T09:56:56;8.50;;;3.65;;
28762;SDS011;15918;51.270;6.522;2024-02-14T09:59:23;8.85;;;4.38;;
28762;SDS011;15918;51.270;6.522;2024-02-14T10:01:49;6.43;;;3.45;;
28762;SDS011;15918;51.270;6.522;2024-02-14T10:04:16;8.60;;;3.67;;
28762;SDS011;15918;51.270;6.522;2024-02-14T10:06:44;6.30;;;3.45;;
28762;SDS011;15918;51.270;6.522;2024-02-14T10:09:10;7.50;;;3.20;;
28762;SDS011;15918;51.270;6.522;2024-02-14T10:11:35;6.00;;;3.30;;
28762;SDS011;15918;51.270;6.522;2024-02-14T10:14:02;5.65;;;3.10;;
28762;SDS011;15918;51.270;6.522;2024-02-14T10:16:29;7.20;;;3.58;;
28762;SDS011;15918;51.270;6.522;2024-02-14T10:18:55;8.40;;;3.20;;
28762;SDS011;15918;51.270;6.522;2024-02-14T10:21:23;7.40;;;3.25;;
28762;SDS011;15918;51.270;6.522;2024-02-14T10:23:50;5.93;;;3.25;;
28762;SDS011;15918;51.270;6.522;2024-02-14T10:26:18;8.15;;;3.03;;
28762;SDS011;15918;51.270;6.522;2024-02-14T10:28:44;6.55;;;3.40;;
28762;SDS011;15918;51.270;6.522;2024-02-14T10:31:10;7.20;;;3.13;;
28762;SDS011;15918;51.270;6.522;2024-02-14T10:33:38;6.03;;;3.63;;
28762;SDS011;15918;51.270;6.522;2024-02-14T10:36:04;7.40;;;3.47;;
28762;SDS011;15918;51.270;6.522;2024-02-14T10:38:33;6.97;;;3.40;;
28762;SDS011;15918;51.270;6.522;2024-02-14T10:40:59;5.85;;;3.30;;
28762;SDS011;15918;51.270;6.522;2024-02-14T10:43:26;5.35;;;3.35;;
28762;SDS011;15918;51.270;6.522;2024-02-14T10:45:53;6.38;;;3.10;;
28762;SDS011;15918;51.270;6.522;2024-02-14T10:48:19;6.50;;;3.28;;
28762;SDS011;15918;51.270;6.522;2024-02-14T10:50:52;4.55;;;2.70;;
28762;SDS011;15918;51.270;6.522;2024-02-14T10:53:20;5.95;;;2.88;;
28762;SDS011;15918;51.270;6.522;2024-02-14T10:55:48;6.28;;;3.42;;
28762;SDS011;15918;51.270;6.522;2024-02-14T10:58:16;5.60;;;3.05;;
28762;SDS011;15918;51.270;6.522;2024-02-14T11:00:42;5.50;;;2.92;;
28762;SDS011;15918;51.270;6.522;2024-02-14T11:03:08;7.72;;;2.70;;
28762;SDS011;15918;51.270;6.522;2024-02-14T11:05:45;5.88;;;2.90;;
28762;SDS011;15918;51.270;6.522;2024-02-14T11:08:14;5.10;;;2.67;;
28762;SDS011;15918;51.270;6.522;2024-02-14T11:10:51;6.53;;;2.42;;
28762;SDS011;15918;51.270;6.522;2024-02-14T11:13:27;3.88;;;2.53;;
28762;SDS011;15918;51.270;6.522;2024-02-14T11:15:56;6.43;;;2.72;;
28762;SDS011;15918;51.270;6.522;2024-02-14T11:18:25;7.03;;;3.25;;
28762;SDS011;15918;51.270;6.522;2024-02-14T11:20:52;4.53;;;2.60;;
28762;SDS011;15918;51.270;6.522;2024-02-14T11:23:21;3.97;;;2.40;;
28762;SDS011;15918;51.270;6.522;2024-02-14T11:25:47;3.20;;;2.10;;
28762;SDS011;15918;51.270;6.522;2024-02-14T11:28:19;5.22;;;2.28;;
28762;SDS011;15918;51.270;6.522;2024-02-14T11:30:49;3.75;;;2.35;;
28762;SDS011;15918;51.270;6.522;2024-02-14T11:33:18;6.93;;;2.22;;
28762;SDS011;15918;51.270;6.522;2024-02-14T11:35:48;5.13;;;2.45;;
28762;SDS011;15918;51.270;6.522;2024-02-14T11:38:19;6.57;;;2.20;;
28762;SDS011;15918;51.270;6.522;2024-02-14T11:40:45;3.50;;;1.80;;
28762;SDS011;15918;51.270;6.522;2024-02-14T11:43:15;6.10;;;2.33;;
28762;SDS011;15918;51.270;6.522;2024-02-14T11:45:43;3.83;;;1.90;;
28762;SDS011;15918;51.270;6.522;2024-02-14T11:48:13;3.03;;;2.10;;
28762;SDS011;15918;51.270;6.522;2024-02-14T11:50:40;6.05;;;2.45;;
28762;SDS011;15918;51.270;6.522;2024-02-14T11:53:06;4.43;;;2.58;;
28762;SDS011;15918;51.270;6.522;2024-02-14T11:55:35;4.28;;;2.25;;
28762;SDS011;15918;51.270;6.522;2024-02-14T11:58:12;4.13;;;2.65;;
28762;SDS011;15918;51.270;6.522;2024-02-14T12:00:42;2.90;;;2.05;;
28762;SDS011;15918;51.270;6.522;2024-02-14T12:03:12;2.47;;;1.92;;
28762;SDS011;15918;51.270;6.522;2024-02-14T12:05:43;4.50;;;2.15;;
28762;SDS011;15918;51.270;6.522;2024-02-14T12:08:09;4.15;;;2.30;;
28762;SDS011;15918;51.270;6.522;2024-02-14T12:10:35;4.32;;;2.72;;
28762;SDS011;15918;51.270;6.522;2024-02-14T12:13:09;5.22;;;2.70;;
28762;SDS011;15918;51.270;6.522;2024-02-14T12:15:37;4.95;;;2.63;;
28762;SDS011;15918;51.270;6.522;2024-02-14T12:18:10;4.60;;;2.47;;
28762;SDS011;15918;51.270;6.522;2024-02-14T12:20:36;6.05;;;2.72;;
28762;SDS011;15918;51.270;6.522;2024-02-14T12:23:06;5.07;;;3.13;;
28762;SDS011;15918;51.270;6.522;2024-02-14T12:25:32;5.65;;;2.75;;
28762;SDS011;15918;51.270;6.522;2024-02-14T12:27:59;7.15;;;3.08;;
28762;SDS011;15918;51.270;6.522;2024-02-14T12:30:45;5.85;;;2.75;;
28762;SDS011;15918;51.270;6.522;2024-02-14T12:33:13;4.97;;;2.50;;
28762;SDS011;15918;51.270;6.522;2024-02-14T12:35:43;4.95;;;2.50;;
28762;SDS011;15918;51.270;6.522;2024-02-14T12:38:09;4.70;;;2.45;;
28762;SDS011;15918;51.270;6.522;2024-02-14T12:40:35;5.95;;;2.42;;
28762;SDS011;15918;51.270;6.522;2024-02-14T12:43:02;2.58;;;2.05;;
28762;SDS011;15918;51.270;6.522;2024-02-14T12:45:27;2.75;;;2.30;;
28762;SDS011;15918;51.270;6.522;2024-02-14T12:47:53;5.10;;;2.38;;
28762;SDS011;15918;51.270;6.522;2024-02-14T12:50:19;2.92;;;2.13;;
28762;SDS011;15918;51.270;6.522;2024-02-14T12:52:47;2.88;;;2.20;;
28762;SDS011;15918;51.270;6.522;2024-02-14T12:55:13;3.38;;;2.35;;
28762;SDS011;15918;51.270;6.522;2024-02-14T12:57:39;2.80;;;2.00;;
28762;SDS011;15918;51.270;6.522;2024-02-14T13:00:05;2.72;;;1.75;;
28762;SDS011;15918;51.270;6.522;2024-02-14T13:02:33;2.83;;;1.58;;
28762;SDS011;15918;51.270;6.522;2024-02-14T13:04:59;2.15;;;1.50;;
28762;SDS011;15918;51.270;6.522;2024-02-14T13:07:26;2.60;;;1.63;;
28762;SDS011;15918;51.270;6.522;2024-02-14T13:09:53;4.05;;;1.73;;
28762;SDS011;15918;51.270;6.522;2024-02-14T13:12:20;1.88;;;1.63;;
28762;SDS011;15918;51.270;6.522;2024-02-14T13:14:46;1.73;;;1.45;;
28762;SDS011;15918;51.270;6.522;2024-02-14T13:17:11;2.42;;;1.40;;
28762;SDS011;15918;51.270;6.522;2024-02-14T13:19:37;2.05;;;1.40;;
28762;SDS011;15918;51.270;6.522;2024-02-14T13:22:04;1.50;;;1.40;;
28762;SDS011;15918;51.270;6.522;2024-02-14T13:24:30;1.42;;;1.33;;
28762;SDS011;15918;51.270;6.522;2024-02-14T13:26:55;2.60;;;1.30;;
28762;SDS011;15918;51.270;6.522;2024-02-14T13:29:22;2.33;;;1.23;;
28762;SDS011;15918;51.270;6.522;2024-02-14T13:31:49;3.42;;;1.40;;
28762;SDS011;15918;51.270;6.522;2024-02-14T13:34:17;2.88;;;1.20;;
28762;SDS011;15918;51.270;6.522;2024-02-14T13:36:46;3.88;;;1.40;;
28762;SDS011;15918;51.270;6.522;2024-02-14T13:39:12;1.67;;;1.42;;
28762;SDS011;15918;51.270;6.522;2024-02-14T13:41:38;2.35;;;1.38;;
28762;SDS011;15918;51.270;6.522;2024-02-14T13:44:07;2.47;;;1.58;;
28762;SDS011;15918;51.270;6.522;2024-02-14T13:46:33;1.20;;;1.10;;
28762;SDS011;15918;51.270;6.522;2024-02-14T13:48:59;1.40;;;1.17;;
28762;SDS011;15918;51.270;6.522;2024-02-14T13:51:25;1.58;;;1.05;;
28762;SDS011;15918;51.270;6.522;2024-02-14T13:53:52;2.80;;;1.17;;
28762;SDS011;15918;51.270;6.522;2024-02-14T13:56:18;1.00;;;0.80;;
28762;SDS011;15918;51.270;6.522;2024-02-14T13:58:46;1.80;;;1.50;;
28762;SDS011;15918;51.270;6.522;2024-02-14T14:01:12;1.50;;;1.23;;
28762;SDS011;15918;51.270;6.522;2024-02-14T14:03:37;1.35;;;1.10;;
28762;SDS011;15918;51.270;6.522;2024-02-14T14:06:03;1.80;;;1.33;;
28762;SDS011;15918;51.270;6.522;2024-02-14T14:08:33;2.10;;;1.13;;
28762;SDS011;15918;51.270;6.522;2024-02-14T14:11:00;2.85;;;1.23;;
28762;SDS011;15918;51.270;6.522;2024-02-14T14:13:29;1.45;;;1.10;;
28762;SDS011;15918;51.270;6.522;2024-02-14T14:15:58;2.20;;;1.20;;
28762;SDS011;15918;51.270;6.522;2024-02-14T14:18:26;1.20;;;1.10;;
28762;SDS011;15918;51.270;6.522;2024-02-14T14:20:52;1.60;;;1.08;;
28762;SDS011;15918;51.270;6.522;2024-02-14T14:23:17;1.08;;;1.00;;
28762;SDS011;15918;51.270;6.522;2024-02-14T14:25:43;1.95;;;1.10;;
28762;SDS011;15918;51.270;6.522;2024-02-14T14:28:09;2.08;;;1.20;;
28762;SDS011;15918;51.270;6.522;2024-02-14T14:30:35;1.30;;;0.90;;
28762;SDS011;15918;51.270;6.522;2024-02-14T14:33:01;1.80;;;0.80;;
28762;SDS011;15918;51.270;6.522;2024-02-14T14:35:27;1.88;;;1.33;;
28762;SDS011;15918;51.270;6.522;2024-02-14T14:37:54;1.67;;;1.20;;
28762;SDS011;15918;51.270;6.522;2024-02-14T14:40:19;1.13;;;1.02;;
28762;SDS011;15918;51.270;6.522;2024-02-14T14:42:46;1.77;;;1.02;;
28762;SDS011;15918;51.270;6.522;2024-02-14T14:45:12;1.55;;;1.17;;
28762;SDS011;15918;51.270;6.522;2024-02-14T14:47:37;0.90;;;0.90;;